sensor_id;sensor_type;location;lat;lon;timestamp;P1;durP1;ratioP1;P2;durP2;ratioP2
53513;SDS011;39768;54.148;12.174;2022-11-20T00:01:27;0.52;;;0.52;;
53513;SDS011;39768;54.148;12.174;2022-11-20T00:05:31;0.63;;;0.63;;
53513;SDS011;39768;54.148;12.174;2022-11-20T00:09:33;0.60;;;0.60;;
53513;SDS011;39768;54.148;12.174;2022-11-20T00:13:35;0.68;;;0.68;;
53513;SDS011;39768;54.148;12.174;2022-11-20T00:17:36;0.43;;;0.43;;
53513;SDS011;39768;54.148;12.174;2022-11-20T00:21:38;0.65;;;0.65;;
53513;SDS011;39768;54.148;12.174;2022-11-20T00:25:39;0.50;;;0.50;;
53513;SDS011;39768;54.148;12.174;2022-11-20T00:29:41;0.60;;;0.60;;
53513;SDS011;39768;54.148;12.174;2022-11-20T00:33:42;0.50;;;0.50;;
53513;SDS011;39768;54.148;12.174;2022-11-20T00:37:44;0.50;;;0.50;;
53513;SDS011;39768;54.148;12.174;2022-11-20T00:41:46;0.52;;;0.52;;
53513;SDS011;39768;54.148;12.174;2022-11-20T00:45:47;0.68;;;0.60;;
53513;SDS011;39768;54.148;12.174;2022-11-20T00:49:49;0.88;;;0.60;;
53513;SDS011;39768;54.148;12.174;2022-11-20T00:53:50;0.40;;;0.40;;
53513;SDS011;39768;54.148;12.174;2022-11-20T00:57:52;1.75;;;0.80;;
53513;SDS011;39768;54.148;12.174;2022-11-20T01:01:53;1.77;;;0.63;;
53513;SDS011;39768;54.148;12.174;2022-11-20T01:05:54;1.08;;;0.50;;
53513;SDS011;39768;54.148;12.174;2022-11-20T01:10:00;1.75;;;0.73;;
53513;SDS011;39768;54.148;12.174;2022-11-20T01:14:03;0.70;;;0.70;;
53513;SDS011;39768;54.148;12.174;2022-11-20T01:18:06;1.25;;;0.73;;
53513;SDS011;39768;54.148;12.174;2022-11-20T01:22:07;0.50;;;0.50;;
53513;SDS011;39768;54.148;12.174;2022-11-20T01:26:10;0.50;;;0.50;;
53513;SDS011;39768;54.148;12.174;2022-11-20T01:30:14;0.65;;;0.65;;
53513;SDS011;39768;54.148;12.174;2022-11-20T01:34:17;0.60;;;0.60;;
53513;SDS011;39768;54.148;12.174;2022-11-20T01:38:19;4.28;;;0.57;;
53513;SDS011;39768;54.148;12.174;2022-11-20T01:42:21;0.50;;;0.50;;
53513;SDS011;39768;54.148;12.174;2022-11-20T01:50:49;0.40;;;0.40;;
53513;SDS011;39768;54.148;12.174;2022-11-20T01:55:13;0.95;;;0.95;;
53513;SDS011;39768;54.148;12.174;2022-11-20T01:59:18;0.57;;;0.57;;
53513;SDS011;39768;54.148;12.174;2022-11-20T02:03:22;0.38;;;0.32;;
53513;SDS011;39768;54.148;12.174;2022-11-20T02:07:24;0.55;;;0.55;;
53513;SDS011;39768;54.148;12.174;2022-11-20T02:11:26;0.80;;;0.80;;
53513;SDS011;39768;54.148;12.174;2022-11-20T02:15:32;0.50;;;0.50;;
53513;SDS011;39768;54.148;12.174;2022-11-20T02:19:34;0.85;;;0.85;;
53513;SDS011;39768;54.148;12.174;2022-11-20T02:23:39;0.50;;;0.50;;
53513;SDS011;39768;54.148;12.174;2022-11-20T02:28:04;0.60;;;0.60;;
53513;SDS011;39768;54.148;12.174;2022-11-20T02:32:16;0.90;;;0.65;;
53513;SDS011;39768;54.148;12.174;2022-11-20T02:36:22;0.40;;;0.40;;
53513;SDS011;39768;54.148;12.174;2022-11-20T02:40:27;0.40;;;0.40;;
53513;SDS011;39768;54.148;12.174;2022-11-20T02:44:29;0.38;;;0.38;;
53513;SDS011;39768;54.148;12.174;2022-11-20T02:48:31;0.40;;;0.40;;
53513;SDS011;39768;54.148;12.174;2022-11-20T02:52:34;0.45;;;0.45;;
53513;SDS011;39768;54.148;12.174;2022-11-20T02:56:37;0.30;;;0.30;;
53513;SDS011;39768;54.148;12.174;2022-11-20T03:00:39;0.40;;;0.40;;
53513;SDS011;39768;54.148;12.174;2022-11-20T03:04:41;0.73;;;0.73;;
53513;SDS011;39768;54.148;12.174;2022-11-20T03:08:42;0.60;;;0.60;;
53513;SDS011;39768;54.148;12.174;2022-11-20T03:12:43;0.93;;;0.93;;
53513;SDS011;39768;54.148;12.174;2022-11-20T03:16:45;0.60;;;0.60;;
53513;SDS011;39768;54.148;12.174;2022-11-20T03:20:46;0.40;;;0.40;;
53513;SDS011;39768;54.148;12.174;2022-11-20T03:24:48;0.40;;;0.40;;
53513;SDS011;39768;54.148;12.174;2022-11-20T03:28:53;0.45;;;0.45;;
53513;SDS011;39768;54.148;12.174;2022-11-20T03:32:56;0.43;;;0.43;;
53513;SDS011;39768;54.148;12.174;2022-11-20T03:36:58;0.32;;;0.32;;
53513;SDS011;39768;54.148;12.174;2022-11-20T03:41:00;0.40;;;0.40;;
53513;SDS011;39768;54.148;12.174;2022-11-20T03:45:04;0.52;;;0.52;;
53513;SDS011;39768;54.148;12.174;2022-11-20T03:49:05;0.40;;;0.40;;
53513;SDS011;39768;54.148;12.174;2022-11-20T03:53:07;0.30;;;0.30;;
53513;SDS011;39768;54.148;12.174;2022-11-20T03:57:09;0.32;;;0.32;;
53513;SDS011;39768;54.148;12.174;2022-11-20T04:01:11;1.05;;;1.05;;
53513;SDS011;39768;54.148;12.174;2022-11-20T04:05:15;0.60;;;0.60;;
53513;SDS011;39768;54.148;12.174;2022-11-20T04:09:16;0.50;;;0.50;;
53513;SDS011;39768;54.148;12.174;2022-11-20T04:13:18;0.52;;;0.52;;
53513;SDS011;39768;54.148;12.174;2022-11-20T04:17:19;0.75;;;0.50;;
53513;SDS011;39768;54.148;12.174;2022-11-20T04:21:21;0.98;;;0.98;;
53513;SDS011;39768;54.148;12.174;2022-11-20T04:25:23;0.77;;;0.77;;
53513;SDS011;39768;54.148;12.174;2022-11-20T04:29:24;0.68;;;0.68;;
53513;SDS011;39768;54.148;12.174;2022-11-20T04:33:26;0.40;;;0.40;;
53513;SDS011;39768;54.148;12.174;2022-11-20T04:37:32;0.60;;;0.60;;
53513;SDS011;39768;54.148;12.174;2022-11-20T04:41:35;0.50;;;0.50;;
53513;SDS011;39768;54.148;12.174;2022-11-20T04:45:37;0.60;;;0.60;;
53513;SDS011;39768;54.148;12.174;2022-11-20T04:49:38;0.40;;;0.40;;
53513;SDS011;39768;54.148;12.174;2022-11-20T04:53:40;0.50;;;0.40;;
53513;SDS011;39768;54.148;12.174;2022-11-20T04:57:41;0.65;;;0.52;;
53513;SDS011;39768;54.148;12.174;2022-11-20T05:01:43;0.45;;;0.45;;
53513;SDS011;39768;54.148;12.174;2022-11-20T05:05:44;0.47;;;0.47;;
53513;SDS011;39768;54.148;12.174;2022-11-20T05:09:46;0.60;;;0.60;;
53513;SDS011;39768;54.148;12.174;2022-11-20T05:13:48;0.70;;;0.63;;
53513;SDS011;39768;54.148;12.174;2022-11-20T05:17:50;1.80;;;0.85;;
53513;SDS011;39768;54.148;12.174;2022-11-20T05:21:53;0.40;;;0.40;;
53513;SDS011;39768;54.148;12.174;2022-11-20T05:25:55;0.73;;;0.73;;
53513;SDS011;39768;54.148;12.174;2022-11-20T05:29:59;0.95;;;0.50;;
53513;SDS011;39768;54.148;12.174;2022-11-20T05:34:01;0.40;;;0.40;;
53513;SDS011;39768;54.148;12.174;2022-11-20T05:38:02;0.50;;;0.50;;
53513;SDS011;39768;54.148;12.174;2022-11-20T05:42:04;0.65;;;0.65;;
53513;SDS011;39768;54.148;12.174;2022-11-20T05:50:29;0.40;;;0.40;;
53513;SDS011;39768;54.148;12.174;2022-11-20T05:54:31;0.50;;;0.50;;
53513;SDS011;39768;54.148;12.174;2022-11-20T05:58:33;1.00;;;1.00;;
53513;SDS011;39768;54.148;12.174;2022-11-20T06:02:35;0.55;;;0.55;;
53513;SDS011;39768;54.148;12.174;2022-11-20T06:06:37;0.50;;;0.50;;
53513;SDS011;39768;54.148;12.174;2022-11-20T06:10:38;0.60;;;0.60;;
53513;SDS011;39768;54.148;12.174;2022-11-20T06:14:40;0.75;;;0.75;;
53513;SDS011;39768;54.148;12.174;2022-11-20T06:18:41;2.47;;;0.80;;
53513;SDS011;39768;54.148;12.174;2022-11-20T06:22:43;0.90;;;0.90;;
53513;SDS011;39768;54.148;12.174;2022-11-20T06:26:44;1.50;;;1.42;;
53513;SDS011;39768;54.148;12.174;2022-11-20T06:30:46;1.88;;;1.38;;
53513;SDS011;39768;54.148;12.174;2022-11-20T06:34:47;1.08;;;1.05;;
53513;SDS011;39768;54.148;12.174;2022-11-20T06:38:49;1.80;;;1.05;;
53513;SDS011;39768;54.148;12.174;2022-11-20T06:42:50;1.10;;;1.00;;
53513;SDS011;39768;54.148;12.174;2022-11-20T06:46:54;1.50;;;1.05;;
53513;SDS011;39768;54.148;12.174;2022-11-20T06:50:56;1.25;;;1.25;;
53513;SDS011;39768;54.148;12.174;2022-11-20T06:54:57;0.82;;;0.82;;
53513;SDS011;39768;54.148;12.174;2022-11-20T06:59:03;0.65;;;0.65;;
53513;SDS011;39768;54.148;12.174;2022-11-20T07:03:06;1.30;;;1.20;;
53513;SDS011;39768;54.148;12.174;2022-11-20T07:07:09;1.25;;;1.08;;
53513;SDS011;39768;54.148;12.174;2022-11-20T07:11:11;0.75;;;0.75;;
53513;SDS011;39768;54.148;12.174;2022-11-20T07:15:13;1.52;;;1.15;;
53513;SDS011;39768;54.148;12.174;2022-11-20T07:19:14;1.95;;;1.23;;
53513;SDS011;39768;54.148;12.174;2022-11-20T07:23:16;0.82;;;0.82;;
53513;SDS011;39768;54.148;12.174;2022-11-20T07:27:17;0.70;;;0.70;;
53513;SDS011;39768;54.148;12.174;2022-11-20T07:31:19;1.10;;;1.10;;
53513;SDS011;39768;54.148;12.174;2022-11-20T07:35:21;2.05;;;1.52;;
53513;SDS011;39768;54.148;12.174;2022-11-20T07:39:23;1.13;;;1.02;;
53513;SDS011;39768;54.148;12.174;2022-11-20T07:43:24;1.52;;;1.40;;
53513;SDS011;39768;54.148;12.174;2022-11-20T07:47:26;1.25;;;1.25;;
53513;SDS011;39768;54.148;12.174;2022-11-20T07:51:28;7.00;;;1.83;;
53513;SDS011;39768;54.148;12.174;2022-11-20T07:55:30;2.13;;;1.73;;
53513;SDS011;39768;54.148;12.174;2022-11-20T07:59:32;1.50;;;1.48;;
53513;SDS011;39768;54.148;12.174;2022-11-20T08:03:34;2.72;;;1.38;;
53513;SDS011;39768;54.148;12.174;2022-11-20T08:07:39;0.70;;;0.70;;
53513;SDS011;39768;54.148;12.174;2022-11-20T08:11:42;1.38;;;1.33;;
53513;SDS011;39768;54.148;12.174;2022-11-20T08:16:02;1.50;;;1.20;;
53513;SDS011;39768;54.148;12.174;2022-11-20T08:20:04;1.67;;;1.48;;
53513;SDS011;39768;54.148;12.174;2022-11-20T08:24:05;1.35;;;1.25;;
53513;SDS011;39768;54.148;12.174;2022-11-20T08:28:08;1.73;;;1.27;;
53513;SDS011;39768;54.148;12.174;2022-11-20T08:32:21;1.27;;;0.95;;
53513;SDS011;39768;54.148;12.174;2022-11-20T08:36:23;2.25;;;2.15;;
53513;SDS011;39768;54.148;12.174;2022-11-20T08:40:25;1.58;;;1.48;;
53513;SDS011;39768;54.148;12.174;2022-11-20T08:44:27;1.10;;;1.08;;
53513;SDS011;39768;54.148;12.174;2022-11-20T08:48:28;1.50;;;1.42;;
53513;SDS011;39768;54.148;12.174;2022-11-20T08:52:29;3.70;;;2.03;;
53513;SDS011;39768;54.148;12.174;2022-11-20T08:56:34;2.33;;;1.85;;
53513;SDS011;39768;54.148;12.174;2022-11-20T09:00:36;3.35;;;1.15;;
53513;SDS011;39768;54.148;12.174;2022-11-20T09:04:38;1.50;;;1.40;;
53513;SDS011;39768;54.148;12.174;2022-11-20T09:08:39;3.45;;;2.63;;
53513;SDS011;39768;54.148;12.174;2022-11-20T09:12:41;2.30;;;1.50;;
53513;SDS011;39768;54.148;12.174;2022-11-20T09:16:44;2.28;;;1.65;;
53513;SDS011;39768;54.148;12.174;2022-11-20T09:20:46;3.35;;;1.95;;
53513;SDS011;39768;54.148;12.174;2022-11-20T09:24:47;1.02;;;0.90;;
53513;SDS011;39768;54.148;12.174;2022-11-20T09:28:50;1.63;;;1.52;;
53513;SDS011;39768;54.148;12.174;2022-11-20T09:32:58;2.45;;;1.52;;
53513;SDS011;39768;54.148;12.174;2022-11-20T09:36:59;3.90;;;2.08;;
53513;SDS011;39768;54.148;12.174;2022-11-20T09:41:10;4.28;;;1.75;;
53513;SDS011;39768;54.148;12.174;2022-11-20T09:45:50;1.75;;;1.65;;
53513;SDS011;39768;54.148;12.174;2022-11-20T09:50:19;4.03;;;2.20;;
53513;SDS011;39768;54.148;12.174;2022-11-20T09:54:31;1.85;;;1.75;;
53513;SDS011;39768;54.148;12.174;2022-11-20T09:58:47;1.27;;;1.17;;
53513;SDS011;39768;54.148;12.174;2022-11-20T10:03:06;1.67;;;1.33;;
53513;SDS011;39768;54.148;12.174;2022-11-20T10:07:17;1.08;;;1.08;;
53513;SDS011;39768;54.148;12.174;2022-11-20T10:11:52;0.70;;;0.70;;
53513;SDS011;39768;54.148;12.174;2022-11-20T10:25:14;1.38;;;1.27;;
53513;SDS011;39768;54.148;12.174;2022-11-20T10:29:16;0.85;;;0.85;;
53513;SDS011;39768;54.148;12.174;2022-11-20T10:33:23;1.13;;;1.13;;
53513;SDS011;39768;54.148;12.174;2022-11-20T10:37:32;2.67;;;2.15;;
53513;SDS011;39768;54.148;12.174;2022-11-20T10:41:40;2.50;;;2.40;;
53513;SDS011;39768;54.148;12.174;2022-11-20T10:46:05;1.75;;;1.52;;
53513;SDS011;39768;54.148;12.174;2022-11-20T10:50:11;1.85;;;1.75;;
53513;SDS011;39768;54.148;12.174;2022-11-20T10:54:36;1.20;;;1.20;;
53513;SDS011;39768;54.148;12.174;2022-11-20T11:03:27;1.48;;;0.88;;
53513;SDS011;39768;54.148;12.174;2022-11-20T11:07:35;8.73;;;1.02;;
53513;SDS011;39768;54.148;12.174;2022-11-20T11:11:39;0.75;;;0.75;;
53513;SDS011;39768;54.148;12.174;2022-11-20T11:15:41;1.15;;;0.95;;
53513;SDS011;39768;54.148;12.174;2022-11-20T11:19:42;1.20;;;1.10;;
53513;SDS011;39768;54.148;12.174;2022-11-20T11:23:43;7.03;;;1.60;;
53513;SDS011;39768;54.148;12.174;2022-11-20T11:27:46;1.33;;;1.25;;
53513;SDS011;39768;54.148;12.174;2022-11-20T11:31:49;0.90;;;0.90;;
53513;SDS011;39768;54.148;12.174;2022-11-20T11:35:52;1.35;;;1.25;;
53513;SDS011;39768;54.148;12.174;2022-11-20T11:39:58;1.08;;;1.08;;
53513;SDS011;39768;54.148;12.174;2022-11-20T11:44:20;0.82;;;0.82;;
53513;SDS011;39768;54.148;12.174;2022-11-20T11:48:53;1.35;;;1.25;;
53513;SDS011;39768;54.148;12.174;2022-11-20T11:57:20;1.08;;;1.00;;
53513;SDS011;39768;54.148;12.174;2022-11-20T12:05:34;0.80;;;0.80;;
53513;SDS011;39768;54.148;12.174;2022-11-20T12:09:43;1.10;;;1.10;;
53513;SDS011;39768;54.148;12.174;2022-11-20T12:13:54;0.77;;;0.77;;
53513;SDS011;39768;54.148;12.174;2022-11-20T12:18:08;1.58;;;1.20;;
53513;SDS011;39768;54.148;12.174;2022-11-20T12:30:51;1.42;;;1.33;;
53513;SDS011;39768;54.148;12.174;2022-11-20T12:39:48;1.13;;;1.10;;
53513;SDS011;39768;54.148;12.174;2022-11-20T12:44:04;0.90;;;0.90;;
53513;SDS011;39768;54.148;12.174;2022-11-20T12:49:00;1.02;;;1.02;;
53513;SDS011;39768;54.148;12.174;2022-11-20T12:53:22;1.70;;;1.60;;
53513;SDS011;39768;54.148;12.174;2022-11-20T12:57:43;1.67;;;1.13;;
53513;SDS011;39768;54.148;12.174;2022-11-20T13:01:53;2.80;;;1.85;;
53513;SDS011;39768;54.148;12.174;2022-11-20T13:10:17;2.67;;;1.35;;
53513;SDS011;39768;54.148;12.174;2022-11-20T13:18:48;1.77;;;1.55;;
53513;SDS011;39768;54.148;12.174;2022-11-20T13:22:51;1.45;;;1.42;;
53513;SDS011;39768;54.148;12.174;2022-11-20T13:27:05;2.40;;;2.17;;
53513;SDS011;39768;54.148;12.174;2022-11-20T13:31:25;5.85;;;1.75;;
53513;SDS011;39768;54.148;12.174;2022-11-20T13:35:35;1.00;;;1.00;;
53513;SDS011;39768;54.148;12.174;2022-11-20T13:39:39;1.85;;;1.73;;
53513;SDS011;39768;54.148;12.174;2022-11-20T13:43:40;2.38;;;1.80;;
53513;SDS011;39768;54.148;12.174;2022-11-20T13:47:47;2.45;;;1.75;;
53513;SDS011;39768;54.148;12.174;2022-11-20T13:51:51;1.55;;;1.45;;
53513;SDS011;39768;54.148;12.174;2022-11-20T13:56:00;2.60;;;2.28;;
53513;SDS011;39768;54.148;12.174;2022-11-20T14:04:18;1.40;;;1.30;;
53513;SDS011;39768;54.148;12.174;2022-11-20T14:08:32;1.60;;;1.38;;
53513;SDS011;39768;54.148;12.174;2022-11-20T14:12:39;1.45;;;1.35;;
53513;SDS011;39768;54.148;12.174;2022-11-20T14:16:40;11.85;;;1.67;;
53513;SDS011;39768;54.148;12.174;2022-11-20T14:20:44;1.48;;;1.25;;
53513;SDS011;39768;54.148;12.174;2022-11-20T14:24:46;3.83;;;2.10;;
53513;SDS011;39768;54.148;12.174;2022-11-20T14:28:48;7.72;;;3.55;;
53513;SDS011;39768;54.148;12.174;2022-11-20T14:32:56;16.83;;;5.43;;
53513;SDS011;39768;54.148;12.174;2022-11-20T14:37:03;6.05;;;3.78;;
53513;SDS011;39768;54.148;12.174;2022-11-20T14:41:16;6.28;;;3.80;;
53513;SDS011;39768;54.148;12.174;2022-11-20T14:45:19;3.15;;;2.03;;
53513;SDS011;39768;54.148;12.174;2022-11-20T14:49:22;2.15;;;1.95;;
53513;SDS011;39768;54.148;12.174;2022-11-20T14:53:24;1.98;;;1.55;;
53513;SDS011;39768;54.148;12.174;2022-11-20T14:57:29;1.58;;;1.42;;
53513;SDS011;39768;54.148;12.174;2022-11-20T15:01:33;1.70;;;1.60;;
53513;SDS011;39768;54.148;12.174;2022-11-20T15:05:45;11.75;;;2.63;;
53513;SDS011;39768;54.148;12.174;2022-11-20T15:09:58;1.83;;;1.67;;
53513;SDS011;39768;54.148;12.174;2022-11-20T15:14:03;1.55;;;1.45;;
53513;SDS011;39768;54.148;12.174;2022-11-20T15:18:13;7.00;;;2.50;;
53513;SDS011;39768;54.148;12.174;2022-11-20T15:22:16;4.47;;;3.53;;
53513;SDS011;39768;54.148;12.174;2022-11-20T15:26:21;2.95;;;2.75;;
53513;SDS011;39768;54.148;12.174;2022-11-20T15:30:25;3.90;;;2.42;;
53513;SDS011;39768;54.148;12.174;2022-11-20T15:34:27;9.88;;;5.10;;
53513;SDS011;39768;54.148;12.174;2022-11-20T15:38:28;9.35;;;4.85;;
53513;SDS011;39768;54.148;12.174;2022-11-20T15:42:30;15.75;;;8.20;;
53513;SDS011;39768;54.148;12.174;2022-11-20T15:46:32;6.85;;;3.70;;
53513;SDS011;39768;54.148;12.174;2022-11-20T15:50:59;2.47;;;2.22;;
53513;SDS011;39768;54.148;12.174;2022-11-20T15:55:08;2.03;;;1.88;;
53513;SDS011;39768;54.148;12.174;2022-11-20T15:59:11;4.50;;;3.45;;
53513;SDS011;39768;54.148;12.174;2022-11-20T16:03:15;5.03;;;3.55;;
53513;SDS011;39768;54.148;12.174;2022-11-20T16:07:17;7.22;;;4.70;;
53513;SDS011;39768;54.148;12.174;2022-11-20T16:11:19;3.38;;;2.88;;
53513;SDS011;39768;54.148;12.174;2022-11-20T16:15:20;2.47;;;2.28;;
53513;SDS011;39768;54.148;12.174;2022-11-20T16:19:40;2.40;;;2.20;;
53513;SDS011;39768;54.148;12.174;2022-11-20T16:23:42;1.60;;;1.50;;
53513;SDS011;39768;54.148;12.174;2022-11-20T16:27:43;1.35;;;1.30;;
53513;SDS011;39768;54.148;12.174;2022-11-20T16:31:45;2.70;;;2.35;;
53513;SDS011;39768;54.148;12.174;2022-11-20T16:35:46;3.45;;;2.55;;
53513;SDS011;39768;54.148;12.174;2022-11-20T16:39:48;2.50;;;1.75;;
53513;SDS011;39768;54.148;12.174;2022-11-20T16:43:50;2.28;;;1.77;;
53513;SDS011;39768;54.148;12.174;2022-11-20T16:47:53;3.38;;;2.33;;
53513;SDS011;39768;54.148;12.174;2022-11-20T16:51:54;5.30;;;2.58;;
53513;SDS011;39768;54.148;12.174;2022-11-20T16:55:56;3.42;;;2.40;;
53513;SDS011;39768;54.148;12.174;2022-11-20T16:59:58;2.55;;;2.35;;
53513;SDS011;39768;54.148;12.174;2022-11-20T17:04:04;3.80;;;3.13;;
53513;SDS011;39768;54.148;12.174;2022-11-20T17:08:07;4.85;;;3.88;;
53513;SDS011;39768;54.148;12.174;2022-11-20T17:12:08;12.68;;;3.83;;
53513;SDS011;39768;54.148;12.174;2022-11-20T17:16:14;4.50;;;2.92;;
53513;SDS011;39768;54.148;12.174;2022-11-20T17:20:20;2.72;;;2.45;;
53513;SDS011;39768;54.148;12.174;2022-11-20T17:24:22;3.00;;;2.75;;
53513;SDS011;39768;54.148;12.174;2022-11-20T17:28:29;5.22;;;2.40;;
53513;SDS011;39768;54.148;12.174;2022-11-20T17:32:32;1.98;;;1.88;;
53513;SDS011;39768;54.148;12.174;2022-11-20T17:36:33;3.58;;;3.03;;
53513;SDS011;39768;54.148;12.174;2022-11-20T17:40:35;3.60;;;2.45;;
53513;SDS011;39768;54.148;12.174;2022-11-20T17:44:36;2.42;;;2.22;;
53513;SDS011;39768;54.148;12.174;2022-11-20T17:48:38;5.78;;;4.07;;
53513;SDS011;39768;54.148;12.174;2022-11-20T17:52:44;6.07;;;3.95;;
53513;SDS011;39768;54.148;12.174;2022-11-20T17:56:45;5.60;;;4.25;;
53513;SDS011;39768;54.148;12.174;2022-11-20T18:01:06;4.07;;;3.67;;
53513;SDS011;39768;54.148;12.174;2022-11-20T18:05:08;6.88;;;4.00;;
53513;SDS011;39768;54.148;12.174;2022-11-20T18:09:10;5.20;;;2.72;;
53513;SDS011;39768;54.148;12.174;2022-11-20T18:13:12;3.75;;;3.45;;
53513;SDS011;39768;54.148;12.174;2022-11-20T18:17:13;3.50;;;3.20;;
53513;SDS011;39768;54.148;12.174;2022-11-20T18:21:15;3.45;;;3.15;;
53513;SDS011;39768;54.148;12.174;2022-11-20T18:25:17;2.60;;;2.40;;
53513;SDS011;39768;54.148;12.174;2022-11-20T18:29:18;4.03;;;3.28;;
53513;SDS011;39768;54.148;12.174;2022-11-20T18:33:20;2.33;;;2.13;;
53513;SDS011;39768;54.148;12.174;2022-11-20T18:37:29;5.38;;;2.85;;
53513;SDS011;39768;54.148;12.174;2022-11-20T18:41:32;1.98;;;1.75;;
53513;SDS011;39768;54.148;12.174;2022-11-20T18:45:59;1.75;;;1.63;;
53513;SDS011;39768;54.148;12.174;2022-11-20T18:50:03;2.40;;;2.20;;
53513;SDS011;39768;54.148;12.174;2022-11-20T18:54:06;2.40;;;1.35;;
53513;SDS011;39768;54.148;12.174;2022-11-20T18:58:07;3.03;;;2.03;;
53513;SDS011;39768;54.148;12.174;2022-11-20T19:02:10;2.90;;;2.05;;
53513;SDS011;39768;54.148;12.174;2022-11-20T19:06:16;4.30;;;2.88;;
53513;SDS011;39768;54.148;12.174;2022-11-20T19:10:18;5.05;;;3.70;;
53513;SDS011;39768;54.148;12.174;2022-11-20T19:14:20;5.25;;;3.85;;
53513;SDS011;39768;54.148;12.174;2022-11-20T19:18:22;2.83;;;2.47;;
53513;SDS011;39768;54.148;12.174;2022-11-20T19:22:23;2.72;;;2.50;;
53513;SDS011;39768;54.148;12.174;2022-11-20T19:26:25;2.33;;;1.67;;
53513;SDS011;39768;54.148;12.174;2022-11-20T19:30:27;2.95;;;2.47;;
53513;SDS011;39768;54.148;12.174;2022-11-20T19:34:28;4.20;;;2.20;;
53513;SDS011;39768;54.148;12.174;2022-11-20T19:38:29;3.20;;;1.95;;
53513;SDS011;39768;54.148;12.174;2022-11-20T19:42:31;2.63;;;2.42;;
53513;SDS011;39768;54.148;12.174;2022-11-20T19:46:34;2.55;;;2.28;;
53513;SDS011;39768;54.148;12.174;2022-11-20T19:50:36;1.73;;;1.42;;
53513;SDS011;39768;54.148;12.174;2022-11-20T19:54:38;3.95;;;1.88;;
53513;SDS011;39768;54.148;12.174;2022-11-20T19:58:40;3.97;;;1.80;;
53513;SDS011;39768;54.148;12.174;2022-11-20T20:02:42;1.63;;;1.52;;
53513;SDS011;39768;54.148;12.174;2022-11-20T20:06:43;3.00;;;2.72;;
53513;SDS011;39768;54.148;12.174;2022-11-20T20:10:45;2.03;;;1.83;;
53513;SDS011;39768;54.148;12.174;2022-11-20T20:14:46;1.50;;;1.42;;
53513;SDS011;39768;54.148;12.174;2022-11-20T20:18:51;2.15;;;1.95;;
53513;SDS011;39768;54.148;12.174;2022-11-20T20:22:55;5.90;;;2.53;;
53513;SDS011;39768;54.148;12.174;2022-11-20T20:26:57;1.52;;;1.48;;
53513;SDS011;39768;54.148;12.174;2022-11-20T20:31:06;1.73;;;1.55;;
53513;SDS011;39768;54.148;12.174;2022-11-20T20:35:13;3.28;;;2.03;;
53513;SDS011;39768;54.148;12.174;2022-11-20T20:39:15;1.55;;;1.42;;
53513;SDS011;39768;54.148;12.174;2022-11-20T20:43:16;1.88;;;1.77;;
53513;SDS011;39768;54.148;12.174;2022-11-20T20:47:18;2.25;;;2.05;;
53513;SDS011;39768;54.148;12.174;2022-11-20T20:51:20;2.22;;;1.73;;
53513;SDS011;39768;54.148;12.174;2022-11-20T20:55:22;1.83;;;1.65;;
53513;SDS011;39768;54.148;12.174;2022-11-20T20:59:23;3.60;;;1.92;;
53513;SDS011;39768;54.148;12.174;2022-11-20T21:03:25;3.50;;;1.98;;
53513;SDS011;39768;54.148;12.174;2022-11-20T21:07:33;2.13;;;2.03;;
53513;SDS011;39768;54.148;12.174;2022-11-20T21:11:34;3.80;;;2.35;;
53513;SDS011;39768;54.148;12.174;2022-11-20T21:15:37;1.95;;;1.77;;
53513;SDS011;39768;54.148;12.174;2022-11-20T21:19:39;3.90;;;2.95;;
53513;SDS011;39768;54.148;12.174;2022-11-20T21:23:43;6.45;;;2.42;;
53513;SDS011;39768;54.148;12.174;2022-11-20T21:27:46;2.60;;;2.05;;
53513;SDS011;39768;54.148;12.174;2022-11-20T21:31:48;2.55;;;2.38;;
53513;SDS011;39768;54.148;12.174;2022-11-20T21:35:50;4.15;;;2.67;;
53513;SDS011;39768;54.148;12.174;2022-11-20T21:39:51;6.30;;;1.80;;
53513;SDS011;39768;54.148;12.174;2022-11-20T21:43:53;2.72;;;2.53;;
53513;SDS011;39768;54.148;12.174;2022-11-20T21:48:15;3.13;;;2.25;;
53513;SDS011;39768;54.148;12.174;2022-11-20T21:52:16;3.22;;;2.00;;
53513;SDS011;39768;54.148;12.174;2022-11-20T21:56:19;2.75;;;2.03;;
53513;SDS011;39768;54.148;12.174;2022-11-20T22:00:22;1.42;;;1.38;;
53513;SDS011;39768;54.148;12.174;2022-11-20T22:04:24;2.28;;;2.08;;
53513;SDS011;39768;54.148;12.174;2022-11-20T22:08:26;2.20;;;2.00;;
53513;SDS011;39768;54.148;12.174;2022-11-20T22:12:27;2.40;;;1.83;;
53513;SDS011;39768;54.148;12.174;2022-11-20T22:16:29;2.13;;;1.98;;
53513;SDS011;39768;54.148;12.174;2022-11-20T22:20:31;3.42;;;1.73;;
53513;SDS011;39768;54.148;12.174;2022-11-20T22:24:32;1.95;;;1.63;;
53513;SDS011;39768;54.148;12.174;2022-11-20T22:28:34;1.83;;;1.73;;
53513;SDS011;39768;54.148;12.174;2022-11-20T22:32:36;1.70;;;1.60;;
53513;SDS011;39768;54.148;12.174;2022-11-20T22:36:37;3.50;;;2.03;;
53513;SDS011;39768;54.148;12.174;2022-11-20T22:40:39;2.00;;;1.90;;
53513;SDS011;39768;54.148;12.174;2022-11-20T22:44:43;2.38;;;2.17;;
53513;SDS011;39768;54.148;12.174;2022-11-20T22:48:49;1.52;;;1.42;;
53513;SDS011;39768;54.148;12.174;2022-11-20T22:52:52;2.70;;;1.80;;
53513;SDS011;39768;54.148;12.174;2022-11-20T22:56:53;1.50;;;1.40;;
53513;SDS011;39768;54.148;12.174;2022-11-20T23:00:55;0.70;;;0.70;;
53513;SDS011;39768;54.148;12.174;2022-11-20T23:05:06;2.03;;;1.88;;
53513;SDS011;39768;54.148;12.174;2022-11-20T23:09:07;1.80;;;1.67;;
53513;SDS011;39768;54.148;12.174;2022-11-20T23:13:09;4.15;;;1.58;;
53513;SDS011;39768;54.148;12.174;2022-11-20T23:17:11;1.98;;;1.88;;
53513;SDS011;39768;54.148;12.174;2022-11-20T23:21:13;1.70;;;1.60;;
53513;SDS011;39768;54.148;12.174;2022-11-20T23:25:16;3.70;;;2.15;;
53513;SDS011;39768;54.148;12.174;2022-11-20T23:29:17;1.48;;;1.38;;
53513;SDS011;39768;54.148;12.174;2022-11-20T23:33:19;4.68;;;2.83;;
53513;SDS011;39768;54.148;12.174;2022-11-20T23:37:20;3.30;;;2.10;;
53513;SDS011;39768;54.148;12.174;2022-11-20T23:41:21;2.97;;;2.67;;
53513;SDS011;39768;54.148;12.174;2022-11-20T23:45:23;7.15;;;2.55;;
53513;SDS011;39768;54.148;12.174;2022-11-20T23:49:24;2.85;;;2.60;;
53513;SDS011;39768;54.148;12.174;2022-11-20T23:53:26;3.17;;;2.05;;
53513;SDS011;39768;54.148;12.174;2022-11-20T23:57:28;2.72;;;2.53;;
